»·PEaware :: DAL284 RJAA-KLAX

DAL284 :: RJAA-KLAX

FLIGHT INFORMATION

Flight Status: Arrived
Operator:
Delta Air Lines
More flights by this operator :: More flights under this callsign
Pilot: Henderson P. (1210)
Aircraft: BOEING 777-200
(B772)
More flights by this aircraft type
Origin: RJAA New Tokyo Intl (Narita)
Japan
Destination: KLAX Los Angeles Intl
United States
More flights between these airports :: More routes between these airports
Route: +MAMAS1 PAPAS DCT GUPPY DCT KAGIS A590 PASRO/N0487F350 A590 PINSO A342 CDB DCT 53N150W/N0492F370 50N142W 46N135W 43N130W DCT VESPA C1486 ENI J143 PYE J88 RZS SADDE6
File this flight plan on PilotEdge
Remarks: SEL / DPBC PBN / A1B1C1D1L1O1S1 NAV / RNVD1E2A1 DOF / 130928 REG / N710DN EET / PAZA0227 KZAK0509 KZOA0744 KZLA0836 SEL / DPBC RVR / 75 PER / D / V /
Altitude:
(Current/Filed)
33,000ft
Speed:
(Current/Filed)
495kts
Departed: 28-Sep-13 05:54 AM
Arrived: 28-Sep-13 03:05 PM
Distance/Time
Traveled:
4724nm/9:11
Distance/Time
To Go:
Arrived

Flight Plot

Page will automatically refresh every two minutes.


Map Options




Map Legend


Flown Route
Filed Route
Departure Airport
Arrival Airport
Navaid (VOR, NDB)
Fix

Horizontal Profiles

Position Reports

Time Latitude Longitude Heading Altitude Ground
Speed
28-Sep-13 05:36 35.766088 140.382047 149 148ft 0kts
28-Sep-13 05:37 35.766088 140.382047 149 148ft 0kts
28-Sep-13 05:38 35.766088 140.382047 149 148ft 0kts
28-Sep-13 05:39 35.766088 140.382047 149 148ft 0kts
28-Sep-13 05:40 35.766088 140.382047 149 148ft 0kts
28-Sep-13 05:41 35.766088 140.382047 149 148ft 0kts
28-Sep-13 05:42 35.766085 140.382049 149 148ft 0kts
28-Sep-13 05:43 35.766083 140.382051 149 148ft 0kts
28-Sep-13 05:44 35.766947 140.381307 315 148ft 12kts
28-Sep-13 05:45 35.765941 140.377339 201 148ft 4kts
28-Sep-13 05:46 35.762345 140.379891 149 148ft 21kts
28-Sep-13 05:47 35.756810 140.383801 150 148ft 23kts
28-Sep-13 05:48 35.750968 140.387965 149 148ft 24kts
28-Sep-13 05:49 35.745871 140.391693 149 148ft 15kts
28-Sep-13 05:50 35.744091 140.390407 243 148ft 6kts
28-Sep-13 05:51 35.745555 140.389099 329 148ft 38kts
28-Sep-13 05:52 35.778045 140.365518 329 861ft 182kts
28-Sep-13 05:53 35.822105 140.334003 331 3243ft 195kts
28-Sep-13 05:54 35.876946 140.296240 339 4491ft 262kts
28-Sep-13 05:55 35.931796 140.339355 73 6906ft 273kts
28-Sep-13 05:56 35.917418 140.431321 129 7843ft 279kts
28-Sep-13 05:57 35.843216 140.450084 184 10396ft 297kts
28-Sep-13 05:58 35.752671 140.445695 167 11964ft 355kts
28-Sep-13 05:59 35.671627 140.523949 132 14252ft 390kts
28-Sep-13 06:00 35.600276 140.627597 132 16933ft 404kts
28-Sep-13 06:01 35.524951 140.737981 133 18809ft 431kts
28-Sep-13 06:02 35.444705 140.853863 132 20593ft 454kts
28-Sep-13 06:03 35.391538 140.993538 87 22233ft 477kts
28-Sep-13 06:04 35.427549 141.151672 70 23946ft 488kts
28-Sep-13 06:05 35.468632 141.312710 72 25553ft 499kts
28-Sep-13 06:06 35.510461 141.477942 72 26928ft 512kts
28-Sep-13 06:07 35.552211 141.648023 72 28439ft 522kts
28-Sep-13 06:08 35.595415 141.819987 69 29844ft 532kts
28-Sep-13 06:09 35.648315 141.990492 68 31765ft 528kts
28-Sep-13 06:10 35.699192 142.159701 68 33278ft 529kts
28-Sep-13 06:11 35.750669 142.328848 68 33289ft 525kts
28-Sep-13 06:12 35.800875 142.498301 68 33288ft 525kts
28-Sep-13 06:13 35.881950 142.644767 39 33285ft 518kts
28-Sep-13 06:14 35.989143 142.764801 41 33289ft 518kts
28-Sep-13 06:15 36.093117 142.888724 41 33288ft 518kts
28-Sep-13 06:16 36.196794 143.012448 41 33288ft 518kts
28-Sep-13 06:17 36.300427 143.137136 41 33288ft 518kts
28-Sep-13 06:18 36.404291 143.262641 41 33289ft 518kts
28-Sep-13 06:19 36.507705 143.388100 41 33289ft 518kts
28-Sep-13 06:19 36.593486 143.492546 41 33289ft 518kts
28-Sep-13 06:20 36.696944 143.619005 41 33263ft 515kts
28-Sep-13 06:21 36.797547 143.742111 40 33260ft 507kts
28-Sep-13 06:22 36.899008 143.867129 41 33256ft 511kts
28-Sep-13 06:23 36.999634 143.991792 40 33258ft 508kts
28-Sep-13 06:25 37.105508 144.111379 35 33259ft 521kts
28-Sep-13 06:26 37.213090 144.232129 36 33259ft 521kts
28-Sep-13 06:27 37.321660 144.353780 36 33258ft 522kts
28-Sep-13 06:28 37.429566 144.476351 37 33258ft 513kts
28-Sep-13 06:29 37.535459 144.596939 37 33256ft 514kts
28-Sep-13 06:30 37.641680 144.718646 37 33255ft 514kts
28-Sep-13 06:31 37.746810 144.839570 37 33263ft 513kts
28-Sep-13 06:32 37.853492 144.961692 37 33257ft 513kts
28-Sep-13 06:33 37.959055 145.083702 37 33261ft 513kts
28-Sep-13 06:34 38.064625 145.206254 37 33255ft 514kts
28-Sep-13 06:35 38.170256 145.328967 37 33265ft 515kts
28-Sep-13 06:36 38.275250 145.452236 37 33257ft 514kts
28-Sep-13 06:37 38.381215 145.576883 37 33257ft 516kts
28-Sep-13 06:38 38.486572 145.701506 37 33261ft 515kts
28-Sep-13 06:39 38.591744 145.826500 37 33259ft 516kts
28-Sep-13 06:40 38.697179 145.950931 37 33260ft 515kts
28-Sep-13 06:41 38.802459 146.076504 37 33259ft 517kts
28-Sep-13 06:42 38.908054 146.203052 37 33260ft 515kts
28-Sep-13 06:43 39.012810 146.329180 38 33262ft 515kts
28-Sep-13 06:44 39.117110 146.455316 38 33257ft 514kts
28-Sep-13 06:45 39.221792 146.582415 37 33276ft 519kts
28-Sep-13 06:46 39.326840 146.710511 37 33289ft 518kts
28-Sep-13 06:47 39.431788 146.839052 37 33289ft 518kts
28-Sep-13 06:48 39.536570 146.967951 37 33289ft 519kts
28-Sep-13 06:49 39.641317 147.097372 37 33288ft 519kts
28-Sep-13 06:50 39.745875 147.227131 37 33288ft 519kts
28-Sep-13 06:51 39.850334 147.357342 37 33289ft 519kts
28-Sep-13 06:52 39.955005 147.488398 37 33289ft 519kts
28-Sep-13 06:53 40.058874 147.619032 37 33289ft 519kts
28-Sep-13 06:54 40.163256 147.750900 38 33289ft 519kts
28-Sep-13 06:55 40.266806 147.882306 38 33289ft 519kts
28-Sep-13 06:56 40.370594 148.014611 38 33288ft 519kts
28-Sep-13 06:57 40.474251 148.147348 38 33289ft 519kts
28-Sep-13 06:58 40.577796 148.280550 38 33289ft 519kts
28-Sep-13 06:59 40.681509 148.414580 38 33289ft 520kts
28-Sep-13 07:00 40.784584 148.548401 38 33289ft 522kts
28-Sep-13 07:01 40.888308 148.683218 37 33287ft 522kts
28-Sep-13 07:02 40.991624 148.818808 38 33288ft 522kts
28-Sep-13 07:03 41.094719 148.954799 38 33288ft 522kts
28-Sep-13 07:04 41.197966 149.091975 38 33289ft 522kts
28-Sep-13 07:04 41.283252 149.206017 39 33289ft 522kts
28-Sep-13 07:06 41.403615 149.366286 38 33289ft 522kts
28-Sep-13 07:06 41.488948 149.480580 39 33288ft 522kts
28-Sep-13 07:07 41.591746 149.619195 39 33289ft 522kts
28-Sep-13 07:08 41.693719 149.757408 39 33289ft 523kts
28-Sep-13 07:09 41.795888 149.896561 39 33289ft 523kts
28-Sep-13 07:10 41.897880 150.036146 39 33288ft 523kts
28-Sep-13 07:11 41.999739 150.176229 39 33288ft 523kts
28-Sep-13 07:12 42.101478 150.316830 39 33288ft 523kts
28-Sep-13 07:14 42.203012 150.457837 39 33289ft 523kts
28-Sep-13 07:15 42.304383 150.599313 39 33289ft 523kts
28-Sep-13 07:16 42.405647 150.741339 39 33289ft 523kts
28-Sep-13 07:17 42.506719 150.883802 39 33289ft 526kts
28-Sep-13 07:18 42.608527 151.028019 40 33288ft 527kts
28-Sep-13 07:19 42.709971 151.172452 41 33288ft 525kts
28-Sep-13 07:20 42.811309 151.317464 41 33289ft 526kts
28-Sep-13 07:21 42.911817 151.462020 42 33289ft 526kts
28-Sep-13 07:22 43.012615 151.607738 41 33289ft 532kts
28-Sep-13 07:23 43.114262 151.755432 41 33288ft 531kts
28-Sep-13 07:24 43.215487 151.903281 41 33288ft 531kts
28-Sep-13 07:25 43.317240 152.052682 41 33289ft 531kts
28-Sep-13 07:26 43.417465 152.200609 41 33289ft 527kts
28-Sep-13 07:27 43.517380 152.348852 41 33289ft 527kts
28-Sep-13 07:28 43.617109 152.497594 42 33288ft 527kts
28-Sep-13 07:29 43.716732 152.646960 42 33288ft 523kts
28-Sep-13 07:30 43.815141 152.795286 42 33288ft 524kts
28-Sep-13 07:31 43.913664 152.944554 42 33266ft 523kts
28-Sep-13 07:32 44.011922 153.094232 43 33259ft 523kts
28-Sep-13 07:33 44.110251 153.244807 43 33259ft 523kts
28-Sep-13 07:34 44.208179 153.395570 43 33259ft 527kts
28-Sep-13 07:35 44.306494 153.547744 43 33259ft 527kts
28-Sep-13 07:36 44.404651 153.700499 43 33259ft 527kts
28-Sep-13 07:37 44.503259 153.854796 43 33259ft 534kts
28-Sep-13 07:38 44.602095 154.010302 43 33259ft 533kts
28-Sep-13 07:39 44.701099 154.166162 46 33260ft 537kts
28-Sep-13 07:40 44.800040 154.324160 46 33259ft 536kts
28-Sep-13 07:41 44.897792 154.481941 48 33259ft 535kts
28-Sep-13 07:42 44.994557 154.642089 48 33259ft 535kts
28-Sep-13 07:43 45.091471 154.803256 47 33259ft 535kts
28-Sep-13 07:44 45.188679 154.963304 48 33259ft 535kts
28-Sep-13 07:45 45.285220 155.124555 48 33259ft 535kts
28-Sep-13 07:46 45.381468 155.286431 48 33287ft 535kts
28-Sep-13 07:47 45.477491 155.448885 48 33289ft 535kts
28-Sep-13 07:48 45.572953 155.611333 48 33289ft 535kts
28-Sep-13 07:49 45.668522 155.774915 48 33289ft 535kts
28-Sep-13 07:50 45.763850 155.939044 48 33288ft 535kts
28-Sep-13 07:51 45.858920 156.103694 49 33289ft 535kts
28-Sep-13 07:51 45.938017 156.241427 49 33289ft 535kts
28-Sep-13 07:53 46.048421 156.434820 49 33289ft 535kts
28-Sep-13 07:53 46.127180 156.573607 49 33288ft 536kts
28-Sep-13 07:54 46.223707 156.744656 49 33289ft 553kts
28-Sep-13 07:55 46.320174 156.916657 49 33289ft 551kts
28-Sep-13 07:56 46.416967 157.090315 49 33288ft 551kts
28-Sep-13 07:57 46.512852 157.263424 49 33289ft 551kts
28-Sep-13 07:58 46.609120 157.438320 49 33289ft 551kts
28-Sep-13 07:59 46.704778 157.613208 49 33289ft 551kts
28-Sep-13 08:00 46.799335 157.787178 50 33288ft 551kts
28-Sep-13 08:01 46.895065 157.964431 50 33289ft 551kts
28-Sep-13 08:02 46.989912 158.141179 50 33259ft 551kts
28-Sep-13 08:03 47.084211 158.318036 50 33259ft 551kts
28-Sep-13 08:05 47.178896 158.496769 50 33259ft 551kts
28-Sep-13 08:06 47.272650 158.674896 50 33259ft 551kts
28-Sep-13 08:07 47.366545 158.854457 51 33288ft 547kts
28-Sep-13 08:08 47.458963 159.032348 51 33289ft 547kts
28-Sep-13 08:09 47.551753 159.212123 51 33289ft 547kts
28-Sep-13 08:10 47.643942 159.391912 51 33288ft 547kts
28-Sep-13 08:11 47.735859 159.572355 52 33289ft 547kts
28-Sep-13 08:12 47.827483 159.753418 52 33289ft 547kts
28-Sep-13 08:13 47.919129 159.935733 52 33289ft 547kts
28-Sep-13 08:14 48.010182 160.118087 52 33259ft 547kts
28-Sep-13 08:15 48.100688 160.300445 52 33258ft 547kts
28-Sep-13 08:16 48.191354 160.483875 53 33259ft 547kts
28-Sep-13 08:17 48.281610 160.668968 53 33259ft 547kts
28-Sep-13 08:18 48.370007 160.854642 53 33259ft 547kts
28-Sep-13 08:19 48.458115 161.041891 54 33259ft 547kts
28-Sep-13 08:20 48.546825 161.228809 53 33259ft 547kts
28-Sep-13 08:21 48.635000 161.416571 54 33259ft 547kts
28-Sep-13 08:22 48.722388 161.604603 54 33259ft 547kts
28-Sep-13 08:23 48.809750 161.793962 54 33259ft 547kts
28-Sep-13 08:24 48.897357 161.985204 54 34233ft 546kts
28-Sep-13 08:25 48.983609 162.174826 54 35256ft 547kts
28-Sep-13 08:26 49.070268 162.366703 54 35259ft 550kts
28-Sep-13 08:27 49.156905 162.559914 54 35259ft 550kts
28-Sep-13 08:28 49.243179 162.753711 54 35259ft 550kts
28-Sep-13 08:29 49.329128 162.948186 54 35259ft 550kts
28-Sep-13 08:30 49.415229 163.144427 56 35260ft 561kts
28-Sep-13 08:31 49.502440 163.344706 56 35259ft 562kts
28-Sep-13 08:32 49.589206 163.545457 56 35259ft 562kts
28-Sep-13 08:33 49.675577 163.746814 57 35259ft 562kts
28-Sep-13 08:34 49.761619 163.948934 57 35259ft 562kts
28-Sep-13 08:35 49.847295 164.151742 57 35259ft 562kts
28-Sep-13 08:36 49.932377 164.354696 57 35259ft 562kts
28-Sep-13 08:37 50.017987 164.560497 57 35259ft 568kts
28-Sep-13 08:38 50.103737 164.768262 57 35259ft 567kts
28-Sep-13 08:39 50.188767 164.975914 58 35259ft 567kts
28-Sep-13 08:40 50.273889 165.183929 58 35259ft 567kts
28-Sep-13 08:41 50.358154 165.394130 58 35259ft 567kts
28-Sep-13 08:42 50.442206 165.603831 58 35259ft 561kts
28-Sep-13 08:43 50.525370 165.811976 59 35259ft 562kts
28-Sep-13 08:43 50.594639 165.986854 58 35259ft 562kts
28-Sep-13 08:45 50.691332 166.227718 58 35259ft 556kts
28-Sep-13 08:45 50.759580 166.401081 58 35258ft 556kts
28-Sep-13 08:46 50.840960 166.609566 58 35094ft 556kts
28-Sep-13 08:47 50.922235 166.819498 58 35082ft 556kts
28-Sep-13 08:48 51.002891 167.029538 59 35082ft 556kts
28-Sep-13 08:49 51.083164 167.240294 59 35082ft 556kts
28-Sep-13 08:50 51.162816 167.451137 59 35082ft 556kts
28-Sep-13 08:51 51.242610 167.664112 59 35082ft 556kts
28-Sep-13 08:52 51.321717 167.877014 59 35082ft 556kts
28-Sep-13 08:54 51.400439 168.090658 59 35082ft 556kts
28-Sep-13 08:55 51.478792 168.305092 60 35082ft 556kts
28-Sep-13 08:56 51.556773 168.520321 60 35082ft 556kts
28-Sep-13 08:57 51.634082 168.735511 60 35082ft 556kts
28-Sep-13 08:58 51.711485 168.952810 60 35082ft 556kts
28-Sep-13 08:59 51.788486 169.170841 61 35058ft 568kts
28-Sep-13 09:00 51.826328 169.278712 61 35061ft 578kts
28-Sep-13 09:01 51.862486 169.382251 62 35057ft 584kts
28-Sep-13 09:02 51.904151 169.501957 62 35059ft 583kts
28-Sep-13 09:03 51.980666 169.723456 62 35060ft 579kts
28-Sep-13 09:04 52.049598 169.924655 62 35063ft 582kts
28-Sep-13 09:05 52.128446 170.154983 62 35067ft 581kts
28-Sep-13 09:06 52.206128 170.387017 63 35060ft 581kts
28-Sep-13 09:07 52.287526 170.614457 55 35057ft 583kts
28-Sep-13 09:08 52.385286 170.826947 53 35059ft 584kts
28-Sep-13 09:09 52.481264 171.042915 53 35064ft 582kts
28-Sep-13 09:10 52.577115 171.258340 54 35061ft 583kts
28-Sep-13 09:11 52.671933 171.475344 54 35058ft 583kts
28-Sep-13 09:12 52.765925 171.692447 54 35060ft 583kts
28-Sep-13 09:13 52.860002 171.911622 55 35057ft 584kts
28-Sep-13 09:14 52.953636 172.131609 55 35061ft 583kts
28-Sep-13 09:15 53.046762 172.352334 55 35061ft 582kts
28-Sep-13 09:16 53.139779 172.574677 55 35062ft 583kts
28-Sep-13 09:17 53.231981 172.797096 56 35114ft 582kts
28-Sep-13 09:18 53.324450 173.020630 55 35129ft 583kts
28-Sep-13 09:19 53.415609 173.245488 56 35117ft 583kts
28-Sep-13 09:20 53.492382 173.483070 76 35123ft 576kts
28-Sep-13 09:21 53.532577 173.742220 78 35119ft 574kts
28-Sep-13 09:22 53.576512 174.001621 76 35117ft 575kts
28-Sep-13 09:23 53.621588 174.260075 77 35120ft 575kts
28-Sep-13 09:24 53.665235 174.519890 78 35118ft 574kts
28-Sep-13 09:25 53.708319 174.780764 78 35116ft 574kts
28-Sep-13 09:26 53.750590 175.040892 78 35117ft 574kts
28-Sep-13 09:27 53.792342 175.301509 78 35121ft 573kts
28-Sep-13 09:28 53.832854 175.558477 76 35120ft 548kts
28-Sep-13 09:29 53.871582 175.808099 76 35121ft 550kts
28-Sep-13 09:30 53.910074 176.059780 76 35118ft 548kts
28-Sep-13 09:31 53.947841 176.310656 76 35121ft 550kts
28-Sep-13 09:32 53.985186 176.562700 76 35119ft 550kts
28-Sep-13 09:32 54.015994 176.773697 77 35119ft 550kts
28-Sep-13 09:33 54.052486 177.027300 77 35119ft 548kts
28-Sep-13 09:35 54.094231 177.322908 77 35117ft 550kts
28-Sep-13 09:36 54.129396 177.576284 78 35122ft 549kts
28-Sep-13 09:36 54.158423 177.788264 77 35109ft 550kts
28-Sep-13 09:37 54.193082 178.043106 79 35119ft 552kts
28-Sep-13 09:38 54.227326 178.305485 81 35119ft 572kts
28-Sep-13 09:39 54.261788 178.571862 81 35119ft 573kts
28-Sep-13 09:40 54.295436 178.839455 82 35116ft 572kts
28-Sep-13 09:41 54.330165 179.105368 81 35112ft 572kts
28-Sep-13 09:42 54.363644 179.373195 82 35111ft 572kts
28-Sep-13 09:43 54.396975 179.646897 79 34991ft 600kts
28-Sep-13 09:44 54.430815 179.930806 79 34989ft 609kts
28-Sep-13 09:45 54.464121 -179.783688 80 34989ft 608kts
28-Sep-13 09:47 54.496725 -179.497984 80 34989ft 608kts
28-Sep-13 09:48 54.528686 -179.211551 80 34990ft 608kts
28-Sep-13 09:49 54.560081 -178.923653 81 35009ft 610kts
28-Sep-13 09:50 54.590762 -178.636535 81 35011ft 610kts
28-Sep-13 09:51 54.621031 -178.348097 82 35009ft 609kts
28-Sep-13 09:52 54.650065 -178.059474 82 35010ft 609kts
28-Sep-13 09:53 54.678737 -177.771213 82 35009ft 609kts
28-Sep-13 09:54 54.706925 -177.479890 81 35007ft 609kts
28-Sep-13 09:55 54.736402 -177.190662 82 35009ft 609kts
28-Sep-13 09:56 54.763877 -176.900765 83 35010ft 609kts
28-Sep-13 09:57 54.790481 -176.611445 83 35009ft 609kts
28-Sep-13 09:58 54.816542 -176.319846 81 35020ft 607kts
28-Sep-13 09:59 54.841834 -176.029092 81 35019ft 606kts
28-Sep-13 10:00 54.866338 -175.738812 81 35021ft 608kts
28-Sep-13 10:01 54.890177 -175.447907 82 35018ft 605kts
28-Sep-13 10:02 54.913216 -175.158098 82 35023ft 607kts
28-Sep-13 10:03 54.935730 -174.865762 82 35021ft 607kts
28-Sep-13 10:04 54.957369 -174.575160 83 35021ft 608kts
28-Sep-13 10:05 54.978398 -174.283437 83 35019ft 607kts
28-Sep-13 10:06 54.998768 -173.990450 84 35019ft 607kts
28-Sep-13 10:07 55.018323 -173.699064 83 35026ft 607kts
28-Sep-13 10:08 55.037399 -173.404076 81 35059ft 609kts
28-Sep-13 10:09 55.055625 -173.110920 82 35059ft 609kts
28-Sep-13 10:10 55.073211 -172.816457 82 35059ft 609kts
28-Sep-13 10:11 55.090132 -172.520894 82 35060ft 609kts
28-Sep-13 10:12 55.106340 -172.225057 82 35059ft 609kts
28-Sep-13 10:13 55.121734 -171.930917 83 35059ft 609kts
28-Sep-13 10:14 55.136567 -171.633582 83 35051ft 607kts
28-Sep-13 10:15 55.151154 -171.339790 83 35049ft 605kts
28-Sep-13 10:16 55.163967 -171.045715 84 35049ft 605kts
28-Sep-13 10:17 55.176452 -170.751442 84 35049ft 605kts
28-Sep-13 10:18 55.188182 -170.456976 85 35049ft 605kts
28-Sep-13 10:19 55.200006 -170.162245 84 35052ft 606kts
28-Sep-13 10:20 55.212446 -169.861134 85 35058ft 634kts
28-Sep-13 10:20 55.221857 -169.598250 85 35050ft 651kts
28-Sep-13 10:21 55.232329 -169.283702 85 35029ft 644kts
28-Sep-13 10:23 55.247911 -168.761091 85 35029ft 644kts
28-Sep-13 10:24 55.258750 -168.343505 85 35029ft 640kts
28-Sep-13 10:25 55.265900 -168.032178 86 35029ft 640kts
28-Sep-13 10:26 55.272298 -167.718601 86 35019ft 647kts
28-Sep-13 10:27 55.277933 -167.402500 87 35019ft 646kts
28-Sep-13 10:28 55.282747 -167.086546 87 35020ft 646kts
28-Sep-13 10:29 55.286735 -166.771659 87 34999ft 641kts
28-Sep-13 10:30 55.289893 -166.458103 87 34998ft 642kts
28-Sep-13 10:31 55.292278 -166.141488 87 35000ft 651kts
28-Sep-13 10:32 55.293844 -165.823767 86 34999ft 649kts
28-Sep-13 10:34 55.294584 -165.506125 87 34999ft 650kts
28-Sep-13 10:35 55.294504 -165.191111 87 34921ft 650kts
28-Sep-13 10:36 55.293596 -164.871301 87 34910ft 648kts
28-Sep-13 10:37 55.291872 -164.554476 87 34910ft 647kts
28-Sep-13 10:38 55.289336 -164.238657 87 34909ft 646kts
28-Sep-13 10:39 55.286001 -163.923968 87 34891ft 640kts
28-Sep-13 10:40 55.281881 -163.610399 87 34889ft 642kts
28-Sep-13 10:41 55.277127 -163.297937 86 34889ft 641kts
28-Sep-13 10:42 55.271568 -162.984460 88 34886ft 642kts
28-Sep-13 10:43 55.257928 -162.671165 99 34891ft 646kts
28-Sep-13 10:44 55.217480 -162.363795 101 34889ft 647kts
28-Sep-13 10:45 55.179350 -162.054236 100 34889ft 646kts
28-Sep-13 10:46 55.141878 -161.746313 101 34890ft 647kts
28-Sep-13 10:47 55.102706 -161.438576 101 34853ft 649kts
28-Sep-13 10:48 55.062324 -161.128638 101 34790ft 654kts
28-Sep-13 10:49 55.021219 -160.819704 101 34788ft 653kts
28-Sep-13 10:50 54.979220 -160.510842 101 34787ft 653kts
28-Sep-13 10:51 54.936640 -160.204002 102 34788ft 654kts
28-Sep-13 10:52 54.893007 -159.895611 102 34789ft 654kts
28-Sep-13 10:53 54.848497 -159.587462 103 34790ft 654kts
28-Sep-13 10:54 54.803584 -159.282302 103 34792ft 653kts
28-Sep-13 10:55 54.757613 -158.976031 103 34793ft 654kts
28-Sep-13 10:56 54.711247 -158.672744 104 34786ft 652kts
28-Sep-13 10:57 54.663877 -158.368679 104 34795ft 654kts
28-Sep-13 10:58 54.615631 -158.064713 104 34790ft 653kts
28-Sep-13 10:59 54.566850 -157.762769 105 34787ft 653kts
28-Sep-13 11:09 54.031141 -154.746987 105 34627ft 661kts
28-Sep-13 11:10 53.973461 -154.449776 105 34625ft 663kts
28-Sep-13 11:10 53.924617 -154.201674 106 34631ft 664kts
28-Sep-13 11:11 53.865294 -153.904426 106 34627ft 663kts
28-Sep-13 11:12 53.806802 -153.615596 104 34577ft 629kts
28-Sep-13 11:13 53.750604 -153.342197 105 34581ft 601kts
28-Sep-13 11:14 53.695263 -153.076400 106 34576ft 600kts
28-Sep-13 11:15 53.639208 -152.810820 106 34522ft 600kts
28-Sep-13 11:16 53.582623 -152.546254 106 34344ft 600kts
28-Sep-13 11:17 53.525712 -152.283507 106 34270ft 581kts
28-Sep-13 11:18 53.470813 -152.033157 107 34270ft 568kts
28-Sep-13 11:19 53.415532 -151.784025 106 34271ft 574kts
28-Sep-13 11:20 53.359234 -151.533501 107 34273ft 565kts
28-Sep-13 11:21 53.303553 -151.288553 106 34259ft 562kts
28-Sep-13 11:22 53.247209 -151.043458 107 34263ft 564kts
28-Sep-13 11:23 53.190438 -150.799367 107 34278ft 563kts
28-Sep-13 11:24 53.133071 -150.555520 107 34278ft 563kts
28-Sep-13 11:26 53.075492 -150.310976 107 34277ft 572kts
28-Sep-13 11:27 53.015404 -150.063392 107 34277ft 577kts
28-Sep-13 11:28 52.944485 -149.819983 115 34278ft 587kts
28-Sep-13 11:29 52.864588 -149.582001 114 34281ft 592kts
28-Sep-13 11:30 52.786660 -149.341196 113 34280ft 594kts
28-Sep-13 11:31 52.707897 -149.100187 113 34280ft 597kts
28-Sep-13 11:32 52.627437 -148.857768 114 34279ft 605kts
28-Sep-13 11:33 52.546065 -148.615119 114 34278ft 604kts
28-Sep-13 11:34 52.464162 -148.373199 114 34279ft 603kts
28-Sep-13 11:35 52.381796 -148.132271 115 34279ft 605kts
28-Sep-13 11:36 52.299249 -147.893180 115 34284ft 605kts
28-Sep-13 11:37 52.215624 -147.653189 116 34278ft 604kts
28-Sep-13 11:38 52.132136 -147.415883 116 34291ft 599kts
28-Sep-13 11:39 52.048728 -147.181065 116 34290ft 599kts
28-Sep-13 11:40 51.964910 -146.947342 117 34294ft 597kts
28-Sep-13 11:41 51.881044 -146.715541 117 34288ft 595kts
28-Sep-13 11:42 51.797315 -146.486212 118 34286ft 588kts
28-Sep-13 11:43 51.713568 -146.258921 118 34282ft 587kts
28-Sep-13 11:44 51.629635 -146.033104 119 34279ft 586kts
28-Sep-13 11:45 51.545319 -145.808269 119 34280ft 586kts
28-Sep-13 11:46 51.460388 -145.583810 119 34277ft 585kts
28-Sep-13 11:47 51.374866 -145.359727 120 34281ft 591kts
28-Sep-13 11:48 51.288921 -145.136533 120 34277ft 591kts
28-Sep-13 11:49 51.201858 -144.912313 120 34363ft 589kts
28-Sep-13 11:50 51.115092 -144.690747 120 34395ft 591kts
28-Sep-13 11:51 51.027482 -144.469090 120 34396ft 591kts
28-Sep-13 11:52 50.939690 -144.248727 121 34397ft 591kts
28-Sep-13 11:53 50.851552 -144.029425 121 34397ft 589kts
28-Sep-13 11:54 50.762551 -143.809824 121 34395ft 589kts
28-Sep-13 11:55 50.673334 -143.591605 121 34398ft 591kts
28-Sep-13 11:56 50.584098 -143.375002 121 34441ft 590kts
28-Sep-13 11:56 50.508996 -143.194176 121 35230ft 591kts
28-Sep-13 11:58 50.403846 -142.943036 123 36418ft 586kts
28-Sep-13 11:58 50.329285 -142.766353 124 36389ft 575kts
28-Sep-13 11:59 50.240758 -142.558197 124 36408ft 574kts
28-Sep-13 12:00 50.152032 -142.350010 124 36400ft 575kts
28-Sep-13 12:01 50.062476 -142.143255 124 36372ft 574kts
28-Sep-13 12:02 49.971538 -141.938492 128 36374ft 573kts
28-Sep-13 12:03 49.871777 -141.745180 130 36404ft 574kts
28-Sep-13 12:04 49.772684 -141.551583 129 36405ft 572kts
28-Sep-13 12:05 49.673374 -141.354667 129 36425ft 574kts
28-Sep-13 12:06 49.574536 -141.162083 129 36415ft 574kts
28-Sep-13 12:07 49.475404 -140.970534 130 36402ft 573kts
28-Sep-13 12:08 49.375106 -140.778164 130 36405ft 574kts
28-Sep-13 12:09 49.274917 -140.587371 130 36401ft 574kts
28-Sep-13 12:10 49.174247 -140.396971 130 36404ft 574kts
28-Sep-13 12:11 49.073379 -140.207628 130 36403ft 573kts
28-Sep-13 12:12 48.972264 -140.019167 130 36402ft 572kts
28-Sep-13 12:13 48.870836 -139.831426 131 36406ft 575kts
28-Sep-13 12:14 48.769119 -139.644453 131 36402ft 572kts
28-Sep-13 12:16 48.667519 -139.459052 131 36403ft 573kts
28-Sep-13 12:17 48.565159 -139.273529 131 36402ft 574kts
28-Sep-13 12:18 48.462475 -139.088693 132 36404ft 573kts
28-Sep-13 12:19 48.359684 -138.904908 132 36402ft 573kts
28-Sep-13 12:20 48.256375 -138.721572 132 36403ft 571kts
28-Sep-13 12:21 48.152634 -138.538698 132 36401ft 574kts
28-Sep-13 12:22 48.049243 -138.357650 132 36406ft 572kts
28-Sep-13 12:23 47.945715 -138.177554 132 36401ft 574kts
28-Sep-13 12:24 47.840916 -137.996497 132 36429ft 573kts
28-Sep-13 12:25 47.736414 -137.817187 133 36433ft 573kts
28-Sep-13 12:26 47.632323 -137.639754 133 36432ft 573kts
28-Sep-13 12:27 47.526394 -137.460390 133 36430ft 573kts
28-Sep-13 12:28 47.420694 -137.282566 133 36435ft 572kts
28-Sep-13 12:29 47.315422 -137.106682 133 36404ft 573kts
28-Sep-13 12:30 47.209135 -136.930213 133 36405ft 573kts
28-Sep-13 12:31 47.102801 -136.754840 133 36399ft 573kts
28-Sep-13 12:32 46.996552 -136.580739 134 36418ft 572kts
28-Sep-13 12:33 46.889748 -136.406842 134 36440ft 574kts
28-Sep-13 12:34 46.782793 -136.233827 134 36473ft 571kts
28-Sep-13 12:35 46.676188 -136.062477 134 36481ft 572kts
28-Sep-13 12:36 46.568758 -135.890897 134 36480ft 572kts
28-Sep-13 12:37 46.461193 -135.720156 135 36475ft 571kts
28-Sep-13 12:38 46.352627 -135.548935 136 36482ft 570kts
28-Sep-13 12:39 46.244969 -135.380205 136 36488ft 572kts
28-Sep-13 12:40 46.136940 -135.211197 137 36479ft 572kts
28-Sep-13 12:41 46.028551 -135.043958 136 36529ft 569kts
28-Sep-13 12:42 45.926639 -134.869517 130 36542ft 550kts
28-Sep-13 12:43 45.832827 -134.698878 130 36529ft 546kts
28-Sep-13 12:44 45.737896 -134.527441 130 36528ft 548kts
28-Sep-13 12:45 45.642960 -134.356911 130 36532ft 547kts
28-Sep-13 12:46 45.547378 -134.187036 130 36530ft 547kts
28-Sep-13 12:46 45.467934 -134.046743 131 36526ft 547kts
28-Sep-13 12:47 45.371376 -133.877040 132 36529ft 551kts
28-Sep-13 12:48 45.274688 -133.708198 132 36556ft 549kts
28-Sep-13 12:49 45.177842 -133.540096 132 36568ft 550kts
28-Sep-13 12:50 45.080454 -133.372063 132 36569ft 549kts
28-Sep-13 12:51 44.983300 -133.205359 132 36612ft 551kts
28-Sep-13 12:52 44.885491 -133.038551 133 36626ft 550kts
28-Sep-13 12:53 44.787704 -132.872751 133 36629ft 549kts
28-Sep-13 12:54 44.689110 -132.706595 133 36727ft 551kts
28-Sep-13 12:55 44.589355 -132.539391 132 36726ft 561kts
28-Sep-13 12:56 44.489268 -132.372690 132 36797ft 556kts
28-Sep-13 12:57 44.388966 -132.206613 132 36829ft 558kts
28-Sep-13 12:58 44.288745 -132.041540 132 36829ft 556kts
28-Sep-13 12:59 44.188028 -131.876688 132 36830ft 557kts
28-Sep-13 13:00 44.086967 -131.712187 132 36828ft 555kts
28-Sep-13 13:01 43.986242 -131.549183 132 36833ft 555kts
28-Sep-13 13:03 43.885357 -131.386831 132 36830ft 554kts
28-Sep-13 13:04 43.784198 -131.224987 133 36830ft 554kts
28-Sep-13 13:05 43.682858 -131.063721 133 36828ft 554kts
28-Sep-13 13:06 43.583045 -130.905796 133 36829ft 527kts
28-Sep-13 13:07 43.486734 -130.754192 133 36829ft 524kts
28-Sep-13 13:08 43.390505 -130.603558 134 36843ft 523kts
28-Sep-13 13:09 43.293634 -130.452686 135 36852ft 525kts
28-Sep-13 13:10 43.196760 -130.302206 135 36850ft 523kts
28-Sep-13 13:11 43.100235 -130.153349 135 36844ft 524kts
28-Sep-13 13:12 43.003215 -130.004947 135 36841ft 521kts
28-Sep-13 13:13 42.900689 -129.866839 138 36837ft 514kts
28-Sep-13 13:14 42.796961 -129.731630 137 36842ft 514kts
28-Sep-13 13:15 42.693983 -129.595591 136 36843ft 516kts
28-Sep-13 13:16 42.590619 -129.459657 136 36955ft 516kts
28-Sep-13 13:17 42.487190 -129.324675 136 36958ft 515kts
28-Sep-13 13:18 42.383836 -129.190435 137 36958ft 516kts
28-Sep-13 13:19 42.279471 -129.055599 138 36961ft 513kts
28-Sep-13 13:20 42.175667 -128.922140 138 36961ft 516kts
28-Sep-13 13:21 42.071545 -128.788874 138 36954ft 513kts
28-Sep-13 13:22 41.967426 -128.656233 138 36981ft 516kts
28-Sep-13 13:23 41.863354 -128.524311 138 36977ft 513kts
28-Sep-13 13:24 41.759285 -128.392970 138 36980ft 515kts
28-Sep-13 13:25 41.654920 -128.261907 138 36977ft 510kts
28-Sep-13 13:26 41.550590 -128.131505 137 36982ft 512kts
28-Sep-13 13:27 41.445991 -128.001346 137 36989ft 515kts
28-Sep-13 13:28 41.340582 -127.870760 137 36999ft 516kts
28-Sep-13 13:29 41.236104 -127.741961 138 36996ft 510kts
28-Sep-13 13:30 41.130861 -127.612815 138 36999ft 512kts
28-Sep-13 13:30 41.043458 -127.505965 139 37010ft 512kts
28-Sep-13 13:31 40.938820 -127.378636 138 37031ft 510kts
28-Sep-13 13:32 40.833794 -127.250995 138 37040ft 512kts
28-Sep-13 13:33 40.729043 -127.124720 139 37033ft 510kts
28-Sep-13 13:34 40.625360 -126.995274 131 37030ft 512kts
28-Sep-13 13:35 40.555357 -126.832753 115 37026ft 512kts
28-Sep-13 13:36 40.490639 -126.665561 116 37026ft 509kts
28-Sep-13 13:37 40.424971 -126.500874 116 37028ft 508kts
28-Sep-13 13:38 40.358430 -126.335576 118 37029ft 513kts
28-Sep-13 13:39 40.291272 -126.170268 118 37030ft 512kts
28-Sep-13 13:40 40.224209 -126.006254 118 37029ft 511kts
28-Sep-13 13:41 40.156427 -125.841304 118 37028ft 513kts
28-Sep-13 13:42 40.088536 -125.676985 118 37038ft 513kts
28-Sep-13 13:43 40.020301 -125.512744 119 37039ft 512kts
28-Sep-13 13:44 39.952639 -125.350797 118 37046ft 508kts
28-Sep-13 13:45 39.884536 -125.188597 117 37038ft 505kts
28-Sep-13 13:46 39.816879 -125.028352 117 37040ft 506kts
28-Sep-13 13:47 39.748643 -124.867583 117 37040ft 505kts
28-Sep-13 13:48 39.680467 -124.707743 117 37040ft 504kts
28-Sep-13 13:50 39.612497 -124.549192 117 37053ft 504kts
28-Sep-13 13:51 39.543737 -124.389661 117 37050ft 502kts
28-Sep-13 13:52 39.475301 -124.231676 118 37082ft 502kts
28-Sep-13 13:53 39.406518 -124.073700 118 37099ft 503kts
28-Sep-13 13:54 39.337660 -123.916350 118 37099ft 501kts
28-Sep-13 13:55 39.268729 -123.759616 118 37109ft 501kts
28-Sep-13 13:56 39.199798 -123.603172 118 37108ft 501kts
28-Sep-13 13:57 39.130415 -123.446887 119 37100ft 503kts
28-Sep-13 13:58 39.058424 -123.292679 131 37100ft 499kts
28-Sep-13 13:59 38.936790 -123.218072 169 37098ft 491kts
28-Sep-13 14:00 38.804846 -123.170481 163 37099ft 492kts
28-Sep-13 14:01 38.674735 -123.115022 162 37099ft 490kts
28-Sep-13 14:02 38.544597 -123.058619 163 37101ft 494kts
28-Sep-13 14:03 38.413344 -123.005822 162 37109ft 492kts
28-Sep-13 14:04 38.283478 -122.951839 162 37109ft 490kts
28-Sep-13 14:05 38.153381 -122.898203 162 37099ft 489kts
28-Sep-13 14:06 38.027906 -122.827488 144 37115ft 497kts
28-Sep-13 14:07 37.917613 -122.721222 142 37096ft 493kts
28-Sep-13 14:08 37.806330 -122.619697 143 37111ft 493kts
28-Sep-13 14:09 37.694151 -122.517572 143 37108ft 493kts
28-Sep-13 14:10 37.583375 -122.417659 144 37111ft 487kts
28-Sep-13 14:11 37.472549 -122.318164 144 37120ft 493kts
28-Sep-13 14:12 37.359522 -122.217037 143 37112ft 494kts
28-Sep-13 14:13 37.249652 -122.119110 143 37119ft 487kts
28-Sep-13 14:14 37.138933 -122.020789 143 37099ft 487kts
28-Sep-13 14:15 37.028648 -121.923209 143 37099ft 486kts
28-Sep-13 14:16 36.917489 -121.825126 143 37090ft 486kts
28-Sep-13 14:17 36.806703 -121.727639 143 37099ft 486kts
28-Sep-13 14:17 36.714016 -121.646661 143 37093ft 486kts
28-Sep-13 14:18 36.602952 -121.549431 143 37091ft 487kts
28-Sep-13 14:19 36.492071 -121.452780 143 37091ft 485kts
28-Sep-13 14:20 36.381158 -121.356150 143 37089ft 486kts
28-Sep-13 14:21 36.269201 -121.258814 144 37097ft 491kts
28-Sep-13 14:22 36.156781 -121.160671 144 37099ft 491kts
28-Sep-13 14:23 36.044874 -121.064057 144 37089ft 489kts
28-Sep-13 14:24 35.933121 -120.967908 144 37090ft 492kts
28-Sep-13 14:25 35.819849 -120.870959 144 37081ft 493kts
28-Sep-13 14:26 35.706957 -120.774624 143 37079ft 490kts
28-Sep-13 14:27 35.595739 -120.679157 143 37079ft 483kts
28-Sep-13 14:28 35.485504 -120.585624 143 37079ft 480kts
28-Sep-13 14:29 35.374483 -120.491815 144 37064ft 483kts
28-Sep-13 14:30 35.263162 -120.398135 144 35844ft 487kts
28-Sep-13 14:31 35.149148 -120.302582 143 33471ft 508kts
28-Sep-13 14:32 35.051812 -120.220937 143 31739ft 510kts
28-Sep-13 14:33 34.915898 -120.107199 143 29610ft 502kts
28-Sep-13 14:34 34.801442 -120.011990 144 27482ft 486kts
28-Sep-13 14:35 34.692552 -119.921453 143 25260ft 464kts
28-Sep-13 14:36 34.587695 -119.834974 144 23205ft 445kts
28-Sep-13 14:38 34.496110 -119.739346 126 21176ft 428kts
28-Sep-13 14:39 34.428976 -119.622587 122 19206ft 415kts
28-Sep-13 14:40 34.366017 -119.507112 123 17236ft 405kts
28-Sep-13 14:41 34.312382 -119.409014 123 15591ft 396kts
28-Sep-13 14:42 34.245171 -119.285088 123 13521ft 382kts
28-Sep-13 14:43 34.201659 -119.206156 124 12185ft 374kts
28-Sep-13 14:44 34.133450 -119.082779 124 11252ft 329kts
28-Sep-13 14:45 34.098124 -118.985951 107 10999ft 307kts
28-Sep-13 14:46 34.071856 -118.887008 107 11001ft 311kts
28-Sep-13 14:47 34.045754 -118.789849 107 10998ft 309kts
28-Sep-13 14:48 34.031611 -118.687490 95 10075ft 312kts
28-Sep-13 14:49 34.022841 -118.589570 96 9660ft 275kts
28-Sep-13 14:50 34.013999 -118.496308 97 7405ft 278kts
28-Sep-13 14:51 34.015805 -118.403944 82 7006ft 271kts
28-Sep-13 14:52 34.026551 -118.314058 82 6999ft 270kts
28-Sep-13 14:53 34.037344 -118.223946 82 6980ft 271kts
28-Sep-13 14:54 34.049908 -118.119359 82 6360ft 269kts
28-Sep-13 14:55 34.057262 -118.045642 94 5416ft 263kts
28-Sep-13 14:56 34.003398 -118.009778 205 4858ft 257kts
28-Sep-13 14:57 33.983280 -118.088492 265 4488ft 274kts
28-Sep-13 14:58 33.975085 -118.177711 261 3302ft 247kts
28-Sep-13 14:59 33.967098 -118.255603 261 2538ft 227kts
28-Sep-13 15:00 33.960391 -118.321066 260 1445ft 166kts
28-Sep-13 15:01 33.956288 -118.361301 260 798ft 149kts
28-Sep-13 15:01 33.951052 -118.412172 262 141ft 123kts
28-Sep-13 15:03 33.948584 -118.426807 226 139ft 0kts
28-Sep-13 15:03 33.947291 -118.427817 196 139ft 7kts
28-Sep-13 15:04 33.946324 -118.427512 97 139ft 7kts
28-Sep-13 15:06 33.946844 -118.422216 82 139ft 18kts
28-Sep-13 15:06 33.947340 -118.417310 82 139ft 18kts
28-Sep-13 15:07 33.946897 -118.413626 99 139ft 8kts
28-Sep-13 15:08 33.943072 -118.412450 172 139ft 14kts
28-Sep-13 15:09 33.939202 -118.411878 172 139ft 9kts
28-Sep-13 15:10 33.938682 -118.408841 82 139ft 6kts
28-Sep-13 15:11 33.939161 -118.405516 52 139ft 7kts
28-Sep-13 15:12 33.939687 -118.404877 42 139ft 1kts
28-Sep-13 15:13 33.939721 -118.404839 42 139ft 0kts
28-Sep-13 15:14 33.939721 -118.404839 42 139ft 0kts
28-Sep-13 15:15 33.939721 -118.404839 42 139ft 0kts
28-Sep-13 15:16 33.939721 -118.404839 42 139ft 0kts

Navigation Log

Ident Type
Flight plan parsing failed, navigation log unavailable